createdAt,value
2023-01-22T00:00:13.818Z,25.88
2023-01-22T00:02:44.793Z,28.08
2023-01-22T00:05:12.445Z,23.85
2023-01-22T00:07:39.985Z,25.92
2023-01-22T00:10:07.751Z,39.67
2023-01-22T00:12:36.106Z,26.25
2023-01-22T00:15:04.421Z,26.75
2023-01-22T00:17:32.349Z,23.83
2023-01-22T00:19:59.872Z,26.63
2023-01-22T00:22:27.396Z,26.75
2023-01-22T00:24:55.161Z,25.77
2023-01-22T00:27:22.655Z,28.98
2023-01-22T00:32:19.946Z,35.58
2023-01-22T00:34:52.349Z,25.88
2023-01-22T00:37:20.502Z,28.90
2023-01-22T00:39:48.021Z,35.25
2023-01-22T00:42:15.562Z,27.77
2023-01-22T00:44:43.126Z,28.98
2023-01-22T00:47:10.880Z,27.95
2023-01-22T00:49:38.502Z,30.20
2023-01-22T00:52:05.993Z,28.75
2023-01-22T00:54:33.943Z,33.28
2023-01-22T00:57:01.810Z,26.30
2023-01-22T00:59:30.559Z,26.50
2023-01-22T01:01:58.220Z,30.40
2023-01-22T01:04:27.190Z,28.23
2023-01-22T01:06:56.157Z,32.20
2023-01-22T01:09:23.777Z,30.00
2023-01-22T01:11:51.401Z,24.80
2023-01-22T01:14:18.979Z,26.35
2023-01-22T01:16:49.337Z,31.20
2023-01-22T01:19:17.795Z,29.88
2023-01-22T01:21:45.348Z,30.92
2023-01-22T01:24:13.080Z,25.05
2023-01-22T01:26:41.814Z,25.08
2023-01-22T01:29:11.385Z,30.08
2023-01-22T01:31:39.421Z,22.98
2023-01-22T01:36:48.393Z,28.17
2023-01-22T01:39:17.550Z,23.60
2023-01-22T01:41:45.117Z,25.65
2023-01-22T01:44:19.369Z,23.63
2023-01-22T01:46:54.196Z,28.50
2023-01-22T01:49:28.553Z,25.42
2023-01-22T01:52:01.245Z,25.40
2023-01-22T01:54:29.592Z,26.55
2023-01-22T01:57:05.249Z,25.70
2023-01-22T01:59:35.231Z,35.03
2023-01-22T02:02:04.242Z,33.35
2023-01-22T02:04:31.878Z,30.60
2023-01-22T02:06:59.482Z,34.75
2023-01-22T02:09:27.622Z,36.83
2023-01-22T02:11:55.856Z,35.70
2023-01-22T02:14:29.004Z,33.30
2023-01-22T02:17:15.245Z,37.42
2023-01-22T02:19:44.223Z,39.65
2023-01-22T02:22:25.587Z,37.75
2023-01-22T02:24:53.483Z,37.75
2023-01-22T02:27:21.444Z,48.88
2023-01-22T02:29:51.792Z,41.20
2023-01-22T02:32:19.519Z,42.80
2023-01-22T02:34:47.678Z,49.40
2023-01-22T02:37:15.245Z,44.90
2023-01-22T02:39:42.910Z,44.80
2023-01-22T02:42:10.610Z,40.75
2023-01-22T02:44:39.426Z,46.00
2023-01-22T02:47:06.927Z,44.00
2023-01-22T02:49:35.188Z,41.22
2023-01-22T02:52:02.967Z,40.45
2023-01-22T02:54:31.657Z,42.58
2023-01-22T02:56:59.753Z,42.92
2023-01-22T02:59:27.495Z,42.17
2023-01-22T03:01:57.355Z,40.05
2023-01-22T03:04:27.499Z,41.53
2023-01-22T03:06:55.120Z,45.97
2023-01-22T03:09:28.515Z,45.05
2023-01-22T03:11:56.873Z,45.40
2023-01-22T03:14:47.144Z,42.20
2023-01-22T03:17:34.682Z,45.83
2023-01-22T03:20:20.791Z,45.17
2023-01-22T03:22:49.254Z,48.38
2023-01-22T03:25:16.962Z,46.08
2023-01-22T03:28:04.123Z,41.15
2023-01-22T03:30:34.278Z,44.33
2023-01-22T03:33:02.850Z,43.50
2023-01-22T03:35:31.082Z,39.92
2023-01-22T03:38:12.750Z,41.70
2023-01-22T03:40:41.824Z,38.85
2023-01-22T03:43:10.118Z,44.58
2023-01-22T03:45:37.836Z,41.45
2023-01-22T03:48:06.866Z,41.20
2023-01-22T03:50:38.976Z,44.85
2023-01-22T03:53:07.095Z,40.90
2023-01-22T03:55:34.948Z,52.58
2023-01-22T03:58:03.694Z,41.90
2023-01-22T04:00:31.444Z,46.05
2023-01-22T04:02:59.731Z,36.25
2023-01-22T04:05:32.889Z,52.13
2023-01-22T04:10:31.908Z,44.97
2023-01-22T04:13:02.560Z,38.70
2023-01-22T04:15:30.291Z,47.17
2023-01-22T04:17:59.427Z,46.90
2023-01-22T04:20:41.728Z,41.92
2023-01-22T04:23:19.694Z,43.25
2023-01-22T04:25:48.323Z,39.60
2023-01-22T04:28:16.771Z,39.70
2023-01-22T04:30:46.944Z,43.33
2023-01-22T04:33:33.178Z,46.75
2023-01-22T04:36:06.053Z,47.65
2023-01-22T04:38:33.723Z,37.17
2023-01-22T04:41:03.475Z,35.35
2023-01-22T04:43:32.577Z,52.20
2023-01-22T04:46:00.310Z,34.88
2023-01-22T04:48:31.505Z,50.38
2023-01-22T04:51:00.847Z,40.67
2023-01-22T04:53:30.930Z,37.65
2023-01-22T04:55:58.584Z,30.67
2023-01-22T04:58:26.801Z,33.50
2023-01-22T05:00:57.671Z,43.85
2023-01-22T05:03:25.238Z,30.98
2023-01-22T05:05:54.917Z,42.03
2023-01-22T05:08:23.014Z,40.50
2023-01-22T05:10:51.623Z,37.40
2023-01-22T05:13:25.438Z,41.33
2023-01-22T05:15:53.129Z,31.23
2023-01-22T05:18:20.897Z,34.05
2023-01-22T05:20:51.716Z,40.63
2023-01-22T05:23:21.118Z,35.42
2023-01-22T05:25:49.846Z,33.28
2023-01-22T05:28:21.866Z,38.40
2023-01-22T05:31:05.396Z,39.78
2023-01-22T05:33:47.308Z,33.72
2023-01-22T05:36:15.961Z,36.90
2023-01-22T05:38:44.176Z,33.70
2023-01-22T05:41:11.857Z,30.42
2023-01-22T05:43:43.543Z,36.35
2023-01-22T05:46:17.060Z,34.03
2023-01-22T05:49:05.260Z,29.80
2023-01-22T05:51:37.144Z,31.58
2023-01-22T05:54:06.084Z,35.47
2023-01-22T05:56:36.855Z,32.60
2023-01-22T05:59:04.346Z,33.65
2023-01-22T06:01:31.868Z,23.98
2023-01-22T06:04:00.140Z,21.52
2023-01-22T06:06:31.265Z,27.40
2023-01-22T06:08:59.895Z,27.10
2023-01-22T06:11:32.939Z,25.83
2023-01-22T06:14:00.813Z,31.27
2023-01-22T06:16:28.921Z,30.73
2023-01-22T06:18:56.548Z,31.77
2023-01-22T06:21:27.883Z,32.92
2023-01-22T06:23:56.220Z,23.77
2023-01-22T06:26:24.861Z,25.17
2023-01-22T06:28:53.063Z,33.67
2023-01-22T06:31:21.150Z,26.25
2023-01-22T06:33:48.784Z,23.40
2023-01-22T06:36:16.660Z,29.52
2023-01-22T06:38:44.281Z,26.88
2023-01-22T06:41:16.102Z,27.80
2023-01-22T06:43:45.206Z,23.48
2023-01-22T06:46:12.983Z,26.90
2023-01-22T06:49:02.780Z,29.02
2023-01-22T06:51:31.122Z,22.70
2023-01-22T06:54:00.027Z,21.42
2023-01-22T06:56:28.595Z,20.15
2023-01-22T06:58:58.001Z,28.08
2023-01-22T07:01:26.149Z,22.17
2023-01-22T07:03:53.800Z,21.15
2023-01-22T07:06:21.596Z,20.10
2023-01-22T07:08:49.335Z,22.48
2023-01-22T07:11:17.196Z,24.90
2023-01-22T07:13:44.770Z,18.90
2023-01-22T07:16:12.950Z,21.65
2023-01-22T07:18:42.613Z,18.63
2023-01-22T07:21:11.915Z,17.90
2023-01-22T07:23:39.535Z,21.13
2023-01-22T07:26:07.221Z,22.05
2023-01-22T07:28:34.733Z,21.35
2023-01-22T07:31:03.778Z,23.25
2023-01-22T07:33:31.755Z,24.85
2023-01-22T07:35:59.248Z,20.60
2023-01-22T07:38:27.993Z,26.80
2023-01-22T07:41:16.874Z,23.85
2023-01-22T07:43:49.459Z,17.92
2023-01-22T07:46:19.362Z,18.45
2023-01-22T07:48:46.952Z,22.00
2023-01-22T07:51:15.113Z,26.45
2023-01-22T07:53:43.065Z,16.08
2023-01-22T07:56:10.712Z,17.05
2023-01-22T07:58:39.474Z,17.27
2023-01-22T08:01:07.700Z,13.03
2023-01-22T08:12:41.420Z,15.32
2023-01-22T08:15:10.543Z,12.70
2023-01-22T08:17:38.847Z,16.33
2023-01-22T08:20:09.071Z,18.73
2023-01-22T08:22:37.011Z,15.10
2023-01-22T08:25:05.064Z,15.65
2023-01-22T08:27:35.379Z,16.10
2023-01-22T08:30:04.584Z,16.50
2023-01-22T08:32:32.980Z,19.33
2023-01-22T08:35:00.614Z,16.67
2023-01-22T08:37:28.173Z,12.07
2023-01-22T08:39:56.295Z,18.67
2023-01-22T08:42:24.333Z,14.25
2023-01-22T08:44:51.828Z,18.02
2023-01-22T08:47:27.631Z,26.58
2023-01-22T08:55:24.653Z,12.73
2023-01-22T08:57:58.355Z,11.98
2023-01-22T09:00:26.299Z,14.35
2023-01-22T09:02:59.139Z,12.27
2023-01-22T09:05:27.965Z,14.90
2023-01-22T09:07:56.673Z,14.50
2023-01-22T09:10:26.984Z,16.73
2023-01-22T09:12:54.875Z,13.52
2023-01-22T09:15:22.483Z,17.02
2023-01-22T09:17:49.979Z,17.65
2023-01-22T09:20:18.079Z,13.05
2023-01-22T09:22:46.931Z,15.63
2023-01-22T09:25:15.453Z,41.80
2023-01-22T09:27:42.995Z,13.10
2023-01-22T09:30:11.451Z,20.02
2023-01-22T09:32:41.395Z,11.65
2023-01-22T09:35:09.378Z,22.70
2023-01-22T09:37:36.874Z,18.10
2023-01-22T09:40:04.866Z,11.32
2023-01-22T09:42:38.273Z,12.57
2023-01-22T09:45:13.652Z,16.02
2023-01-22T09:47:49.425Z,21.88
2023-01-22T09:50:34.117Z,12.70
2023-01-22T09:53:06.469Z,16.80
2023-01-22T10:00:39.713Z,42.85
2023-01-22T10:03:22.776Z,19.65
2023-01-22T10:05:59.304Z,16.05
2023-01-22T10:08:33.346Z,20.35
2023-01-22T10:11:03.552Z,19.52
2023-01-22T10:13:35.099Z,13.07
2023-01-22T10:16:03.782Z,14.73
2023-01-22T10:18:50.214Z,14.10
2023-01-22T10:21:20.724Z,11.75
2023-01-22T10:23:50.306Z,14.82
2023-01-22T10:26:29.341Z,16.10
2023-01-22T10:29:00.578Z,14.68
2023-01-22T10:31:31.456Z,14.55
2023-01-22T10:34:05.044Z,13.40
2023-01-22T10:36:34.444Z,13.55
2023-01-22T10:39:06.649Z,15.85
2023-01-22T10:41:34.259Z,17.30
2023-01-22T10:44:17.857Z,14.52
2023-01-22T10:46:49.925Z,20.98
2023-01-22T10:49:26.337Z,14.80
2023-01-22T10:51:56.830Z,16.52
2023-01-22T10:54:36.036Z,16.65
2023-01-22T10:57:27.363Z,17.45
2023-01-22T11:00:21.738Z,9.45
2023-01-22T11:02:50.893Z,23.17
2023-01-22T11:05:30.627Z,13.52
2023-01-22T11:08:06.482Z,15.60
2023-01-22T11:10:46.746Z,18.23
2023-01-22T11:13:20.843Z,18.67
2023-01-22T11:16:05.225Z,11.95
2023-01-22T11:18:39.609Z,21.92
2023-01-22T11:21:19.670Z,13.45
2023-01-22T11:23:53.432Z,14.18
2023-01-22T11:26:48.634Z,19.08
2023-01-22T11:29:33.631Z,15.82
2023-01-22T11:32:13.177Z,17.02
2023-01-22T11:38:11.678Z,27.17
2023-01-22T11:41:12.358Z,14.07
2023-01-22T11:44:09.328Z,14.52
2023-01-22T11:46:58.558Z,17.55
2023-01-22T11:50:02.185Z,11.88
2023-01-22T11:52:48.348Z,15.90
2023-01-22T11:55:21.602Z,16.55
2023-01-22T11:58:39.611Z,12.10
2023-01-22T12:01:32.024Z,16.23
2023-01-22T12:04:11.514Z,17.25
2023-01-22T12:06:45.161Z,15.63
2023-01-22T12:09:30.489Z,15.13
2023-01-22T12:12:31.709Z,13.25
2023-01-22T12:15:33.695Z,16.55
2023-01-22T12:18:33.756Z,15.25
2023-01-22T12:21:49.366Z,13.98
2023-01-22T12:24:32.488Z,12.88
2023-01-22T12:27:10.733Z,15.02
2023-01-22T12:32:22.212Z,14.02
2023-01-22T12:35:06.488Z,11.23
2023-01-22T12:37:46.206Z,11.95
2023-01-22T12:40:27.290Z,14.60
2023-01-22T12:43:07.939Z,20.05
2023-01-22T12:45:59.292Z,16.23
2023-01-22T12:48:48.519Z,15.00
2023-01-22T12:51:47.059Z,19.35
2023-01-22T12:54:20.553Z,17.15
2023-01-22T12:56:50.625Z,17.83
2023-01-22T12:59:43.439Z,15.27
2023-01-22T13:02:24.342Z,19.13
2023-01-22T13:04:53.354Z,12.80
2023-01-22T13:07:20.940Z,19.17
2023-01-22T13:09:49.203Z,12.88
2023-01-22T13:12:28.825Z,16.73
2023-01-22T13:14:56.897Z,15.75
2023-01-22T13:17:27.712Z,15.32
2023-01-22T13:19:56.564Z,17.98
2023-01-22T13:22:26.996Z,18.98
2023-01-22T13:24:58.151Z,18.50
2023-01-22T13:27:28.155Z,17.02
2023-01-22T13:30:16.319Z,16.08
2023-01-22T13:32:44.397Z,14.50
2023-01-22T13:35:15.085Z,14.38
2023-01-22T13:37:45.291Z,15.30
2023-01-22T13:40:15.759Z,19.33
2023-01-22T13:42:46.148Z,15.07
2023-01-22T13:45:16.886Z,18.90
2023-01-22T13:47:45.352Z,17.90
2023-01-22T13:50:25.723Z,18.38
2023-01-22T13:52:53.804Z,18.23
2023-01-22T13:55:23.553Z,18.88
2023-01-22T13:57:54.697Z,16.05
2023-01-22T14:00:25.500Z,10.63
2023-01-22T14:02:54.263Z,20.83
2023-01-22T14:05:27.254Z,22.73
2023-01-22T14:08:13.117Z,14.70
2023-01-22T14:10:43.259Z,20.25
2023-01-22T14:13:13.460Z,14.10
2023-01-22T14:15:41.778Z,19.63
2023-01-22T14:18:18.398Z,20.38
2023-01-22T14:20:47.575Z,19.17
2023-01-22T14:23:15.641Z,16.15
2023-01-22T14:25:46.443Z,18.02
2023-01-22T14:28:14.336Z,21.70
2023-01-22T14:30:42.132Z,20.60
2023-01-22T14:33:17.645Z,17.02
2023-01-22T14:35:45.301Z,19.98
2023-01-22T14:38:13.025Z,17.02
2023-01-22T14:40:41.732Z,22.25
2023-01-22T14:43:09.442Z,28.30
2023-01-22T14:45:40.589Z,18.35
2023-01-22T14:48:11.505Z,23.52
2023-01-22T14:50:40.737Z,16.52
2023-01-22T14:53:09.713Z,24.27
2023-01-22T14:55:37.474Z,20.80
2023-01-22T14:58:08.513Z,26.35
2023-01-22T15:00:36.877Z,16.92
2023-01-22T15:03:05.244Z,22.73
2023-01-22T15:05:35.505Z,23.35
2023-01-22T15:08:03.539Z,25.13
2023-01-22T15:10:31.667Z,25.55
2023-01-22T15:12:59.556Z,21.02
2023-01-22T15:15:28.528Z,28.52
2023-01-22T15:17:57.429Z,23.17
2023-01-22T15:20:25.781Z,20.27
2023-01-22T15:22:53.343Z,21.40
2023-01-22T15:25:20.884Z,20.40
2023-01-22T15:27:48.352Z,19.73
2023-01-22T15:30:16.552Z,14.63
2023-01-22T15:32:44.958Z,20.13
2023-01-22T15:35:12.756Z,23.67
2023-01-22T15:37:40.469Z,13.60
2023-01-22T15:40:10.228Z,17.55
2023-01-22T15:42:37.933Z,18.75
2023-01-22T15:45:06.803Z,19.30
2023-01-22T15:47:35.355Z,17.55
2023-01-22T15:50:03.979Z,22.17
2023-01-22T15:52:31.767Z,16.50
2023-01-22T15:54:59.480Z,17.00
2023-01-22T15:57:27.729Z,21.83
2023-01-22T15:59:55.270Z,17.05
2023-01-22T16:02:22.850Z,17.20
2023-01-22T16:04:50.856Z,23.63
2023-01-22T16:07:18.431Z,15.52
2023-01-22T16:09:46.033Z,17.70
2023-01-22T16:12:13.578Z,17.00
2023-01-22T16:14:42.082Z,18.13
2023-01-22T16:17:09.733Z,18.90
2023-01-22T16:19:37.249Z,16.25
2023-01-22T16:22:05.619Z,14.80
2023-01-22T16:24:33.490Z,15.43
2023-01-22T16:27:01.020Z,14.95
2023-01-22T16:29:28.556Z,14.45
2023-01-22T16:31:56.515Z,11.15
2023-01-22T16:34:24.238Z,16.27
2023-01-22T16:36:52.002Z,15.43
2023-01-22T16:39:21.846Z,14.52
2023-01-22T16:41:50.841Z,13.63
2023-01-22T16:44:20.423Z,17.17
2023-01-22T16:46:59.984Z,11.70
2023-01-22T16:49:32.895Z,12.88
2023-01-22T16:52:16.699Z,13.95
2023-01-22T16:54:49.558Z,12.43
2023-01-22T16:57:19.353Z,15.60
2023-01-22T16:59:47.134Z,13.43
2023-01-22T17:02:16.419Z,14.93
2023-01-22T17:04:46.086Z,17.98
2023-01-22T17:07:27.851Z,12.23
2023-01-22T17:10:00.154Z,13.48
2023-01-22T17:12:27.762Z,14.85
2023-01-22T17:14:58.591Z,12.13
2023-01-22T17:17:26.447Z,15.10
2023-01-22T17:19:54.858Z,17.83
2023-01-22T17:22:24.390Z,14.32
2023-01-22T17:24:52.722Z,15.40
2023-01-22T17:27:21.603Z,18.02
2023-01-22T17:29:49.137Z,14.70
2023-01-22T17:32:16.648Z,20.35
2023-01-22T17:34:44.316Z,17.48
2023-01-22T17:37:13.670Z,17.95
2023-01-22T17:39:43.069Z,15.38
2023-01-22T17:42:10.693Z,21.27
2023-01-22T17:44:39.608Z,18.38
2023-01-22T17:49:36.060Z,16.58
2023-01-22T17:52:04.541Z,22.17
2023-01-22T17:54:32.088Z,16.48
2023-01-22T17:56:59.997Z,18.75
2023-01-22T17:59:27.502Z,15.35
2023-01-22T18:01:55.135Z,18.60
2023-01-22T18:04:23.500Z,19.20
2023-01-22T18:11:57.919Z,20.05
2023-01-22T18:14:28.435Z,22.40
2023-01-22T18:16:55.949Z,18.35
2023-01-22T18:19:24.783Z,18.65
2023-01-22T18:21:52.505Z,27.27
2023-01-22T18:24:23.113Z,22.88
2023-01-22T18:26:50.789Z,24.52
2023-01-22T18:29:18.331Z,24.10
2023-01-22T18:31:46.036Z,30.42
2023-01-22T18:34:15.058Z,25.73
2023-01-22T18:36:44.188Z,31.65
2023-01-22T18:39:18.239Z,31.08
2023-01-22T18:41:47.096Z,30.65
2023-01-22T18:44:16.313Z,32.13
2023-01-22T18:46:47.500Z,29.55
2023-01-22T18:49:18.857Z,27.48
2023-01-22T18:51:46.967Z,27.95
2023-01-22T18:54:15.595Z,26.90
2023-01-22T18:56:43.345Z,23.05
2023-01-22T18:59:13.066Z,25.08
2023-01-22T19:01:41.256Z,28.95
2023-01-22T19:04:20.315Z,22.60
2023-01-22T19:06:53.593Z,20.08
2023-01-22T19:09:21.667Z,27.30
2023-01-22T19:11:52.337Z,23.92
2023-01-22T19:14:21.751Z,20.13
2023-01-22T19:16:51.564Z,21.83
2023-01-22T19:19:20.510Z,24.77
2023-01-22T19:21:55.817Z,19.90
2023-01-22T19:24:27.919Z,19.67
2023-01-22T19:26:57.094Z,17.92
2023-01-22T19:29:26.536Z,22.52
2023-01-22T19:31:55.798Z,20.35
2023-01-22T19:34:24.365Z,24.08
2023-01-22T19:36:56.925Z,19.98
2023-01-22T19:39:25.657Z,26.15
2023-01-22T19:41:54.400Z,23.33
2023-01-22T19:44:23.097Z,20.83
2023-01-22T19:46:50.762Z,22.70
2023-01-22T19:49:18.450Z,19.38
2023-01-22T19:51:46.193Z,20.90
2023-01-22T19:54:14.359Z,15.27
2023-01-22T19:56:45.999Z,21.70
2023-01-22T19:59:16.156Z,15.68
2023-01-22T20:01:45.764Z,18.85
2023-01-22T20:04:21.523Z,18.92
2023-01-22T20:06:51.812Z,18.48
2023-01-22T20:09:21.733Z,17.42
2023-01-22T20:11:53.921Z,19.50
2023-01-22T20:14:23.051Z,20.70
2023-01-22T20:16:50.842Z,22.02
2023-01-22T20:19:18.571Z,20.85
2023-01-22T20:21:46.274Z,22.88
2023-01-22T20:24:13.824Z,17.77
2023-01-22T20:26:41.362Z,20.83
2023-01-22T20:29:09.175Z,19.52
2023-01-22T20:31:36.692Z,21.23
2023-01-22T20:34:05.041Z,21.15
2023-01-22T20:36:33.283Z,18.85
2023-01-22T20:39:01.863Z,17.27
2023-01-22T20:41:30.859Z,17.30
2023-01-22T20:43:58.760Z,17.40
2023-01-22T20:46:27.316Z,29.42
2023-01-22T20:48:57.621Z,25.65
2023-01-22T20:51:27.874Z,18.92
2023-01-22T20:53:57.190Z,17.30
2023-01-22T20:56:30.474Z,17.60
2023-01-22T20:59:04.400Z,18.80
2023-01-22T21:01:33.091Z,19.95
2023-01-22T21:04:04.696Z,20.63
2023-01-22T21:06:34.500Z,19.20
2023-01-22T21:11:32.183Z,18.33
2023-01-22T21:14:01.469Z,17.63
2023-01-22T21:16:32.797Z,18.10
2023-01-22T21:19:06.046Z,17.88
2023-01-22T21:21:35.635Z,24.45
2023-01-22T21:24:03.559Z,19.33
2023-01-22T21:26:32.703Z,17.00
2023-01-22T21:29:03.997Z,18.17
2023-01-22T21:31:33.586Z,19.58
2023-01-22T21:34:03.584Z,14.38
2023-01-22T21:36:36.807Z,20.20
2023-01-22T21:39:06.990Z,17.80
2023-01-22T21:41:35.931Z,16.48
2023-01-22T21:44:22.214Z,23.13
2023-01-22T21:46:50.015Z,18.13
2023-01-22T21:49:22.654Z,22.90
2023-01-22T21:51:51.944Z,20.33
2023-01-22T21:54:37.505Z,22.48
2023-01-22T21:57:07.015Z,23.40
2023-01-22T21:59:36.918Z,25.02
2023-01-22T22:02:06.560Z,18.55
2023-01-22T22:04:35.541Z,20.75
2023-01-22T22:12:34.688Z,21.90
2023-01-22T22:15:03.098Z,18.20
2023-01-22T22:17:30.984Z,17.67
2023-01-22T22:19:58.507Z,19.35
2023-01-22T22:22:26.105Z,19.77
2023-01-22T22:24:55.114Z,19.88
2023-01-22T22:27:22.635Z,19.50
2023-01-22T22:29:53.269Z,26.40
2023-01-22T22:32:22.063Z,40.72
2023-01-22T22:34:49.867Z,27.75
2023-01-22T22:37:17.620Z,19.30
2023-01-22T22:39:45.094Z,17.40
2023-01-22T22:43:28.273Z,27.80
2023-01-22T22:45:55.891Z,18.20
2023-01-22T22:48:24.332Z,17.58
2023-01-22T22:50:51.842Z,20.35
2023-01-22T22:53:19.292Z,19.65
2023-01-22T22:55:47.345Z,19.92
2023-01-22T22:58:15.147Z,19.23
2023-01-22T23:00:43.013Z,16.58
2023-01-22T23:03:10.651Z,17.75
2023-01-22T23:05:39.202Z,16.63
2023-01-22T23:08:07.057Z,21.77
2023-01-22T23:10:37.840Z,20.17
2023-01-22T23:13:05.986Z,16.70
2023-01-22T23:15:34.247Z,16.80
2023-01-22T23:18:01.895Z,25.27
2023-01-22T23:20:29.621Z,25.45
2023-01-22T23:22:59.993Z,13.98
2023-01-22T23:25:27.540Z,19.08
2023-01-22T23:27:55.829Z,19.38
2023-01-22T23:30:23.438Z,19.77
2023-01-22T23:32:51.002Z,17.83
2023-01-22T23:35:18.641Z,23.92
2023-01-22T23:37:46.107Z,20.58
2023-01-22T23:40:13.740Z,20.90
2023-01-22T23:42:41.388Z,16.48
2023-01-22T23:45:11.619Z,22.50
2023-01-22T23:47:39.603Z,14.20
2023-01-22T23:50:08.782Z,16.63
2023-01-22T23:52:38.213Z,16.40
2023-01-22T23:55:06.214Z,17.85
2023-01-22T23:57:34.256Z,21.58
